createdAt,value
2023-02-06T00:01:59.220Z,100.00
2023-02-06T00:05:00.796Z,100.00
2023-02-06T00:08:02.691Z,100.00
2023-02-06T00:11:07.387Z,100.00
2023-02-06T00:14:09.056Z,100.00
2023-02-06T00:17:10.596Z,100.00
2023-02-06T00:20:13.202Z,100.00
2023-02-06T00:23:14.956Z,100.00
2023-02-06T00:26:16.732Z,100.00
2023-02-06T00:29:18.871Z,100.00
2023-02-06T00:32:21.596Z,100.00
2023-02-06T00:35:23.186Z,100.00
2023-02-06T00:38:24.773Z,100.00
2023-02-06T00:41:26.321Z,100.00
2023-02-06T00:44:28.947Z,100.00
2023-02-06T00:47:30.512Z,100.00
2023-02-06T00:50:32.070Z,100.00
2023-02-06T00:53:33.822Z,100.00
2023-02-06T00:56:35.609Z,100.00
2023-02-06T00:59:37.144Z,100.00
2023-02-06T01:02:38.758Z,100.00
2023-02-06T01:05:40.352Z,100.00
2023-02-06T01:08:41.962Z,100.00
2023-02-06T01:11:43.547Z,100.00
2023-02-06T01:14:45.162Z,100.00
2023-02-06T01:17:46.638Z,100.00
2023-02-06T01:20:48.209Z,100.00
2023-02-06T01:23:51.352Z,100.00
2023-02-06T01:26:52.935Z,99.85
2023-02-06T01:29:54.608Z,100.00
2023-02-06T01:32:56.213Z,100.00
2023-02-06T01:35:57.790Z,99.56
2023-02-06T01:38:59.364Z,100.00
2023-02-06T01:42:00.966Z,100.00
2023-02-06T01:45:25.080Z,100.00
2023-02-06T01:48:51.639Z,100.00
2023-02-06T01:52:06.506Z,100.00
2023-02-06T01:55:08.288Z,100.00
2023-02-06T01:58:11.956Z,99.86
2023-02-06T02:01:13.608Z,99.93
2023-02-06T02:04:19.092Z,98.96
2023-02-06T02:07:27.230Z,99.22
2023-02-06T02:10:30.747Z,98.50
2023-02-06T02:13:34.307Z,99.35
2023-02-06T02:17:14.766Z,99.62
2023-02-06T02:20:28.522Z,99.64
2023-02-06T02:23:37.723Z,98.93
2023-02-06T02:27:14.668Z,99.25
2023-02-06T02:30:53.828Z,99.44
2023-02-06T02:34:08.088Z,99.06
2023-02-06T02:37:28.696Z,98.44
2023-02-06T02:40:39.465Z,98.57
2023-02-06T02:43:58.089Z,97.14
2023-02-06T02:47:03.690Z,97.76
2023-02-06T02:50:06.082Z,97.12
2023-02-06T02:53:08.356Z,96.82
2023-02-06T02:56:30.243Z,97.71
2023-02-06T02:59:36.663Z,97.10
2023-02-06T03:02:40.896Z,97.05
2023-02-06T03:06:10.180Z,96.97
2023-02-06T03:09:15.746Z,96.85
2023-02-06T03:12:43.473Z,95.93
2023-02-06T03:15:54.805Z,95.50
2023-02-06T03:19:37.650Z,95.71
2023-02-06T03:22:41.988Z,96.42
2023-02-06T03:25:47.587Z,96.47
2023-02-06T03:28:52.753Z,96.56
2023-02-06T03:32:01.789Z,95.93
2023-02-06T03:35:10.397Z,95.52
2023-02-06T03:38:12.772Z,95.59
2023-02-06T03:41:16.336Z,96.75
2023-02-06T03:44:24.700Z,96.57
2023-02-06T03:47:27.649Z,96.36
2023-02-06T03:50:31.605Z,96.66
2023-02-06T03:53:36.499Z,96.87
2023-02-06T03:56:58.325Z,96.60
2023-02-06T03:59:59.920Z,96.90
2023-02-06T04:03:02.362Z,96.39
2023-02-06T04:06:04.064Z,96.49
2023-02-06T04:09:05.704Z,96.81
2023-02-06T04:12:08.263Z,95.95
2023-02-06T04:15:10.743Z,95.82
2023-02-06T04:18:12.293Z,95.86
2023-02-06T04:21:13.906Z,96.31
2023-02-06T04:24:15.468Z,96.05
2023-02-06T04:27:17.100Z,95.76
2023-02-06T04:30:19.190Z,96.61
2023-02-06T04:33:21.026Z,95.85
2023-02-06T04:36:22.596Z,96.02
2023-02-06T04:39:24.586Z,96.04
2023-02-06T04:42:26.207Z,95.59
2023-02-06T04:45:27.915Z,96.03
2023-02-06T04:48:29.508Z,95.98
2023-02-06T04:51:31.064Z,96.09
2023-02-06T04:54:32.851Z,96.84
2023-02-06T04:57:34.513Z,96.23
2023-02-06T05:00:37.975Z,95.98
2023-02-06T05:03:40.291Z,96.93
2023-02-06T05:06:41.857Z,97.34
2023-02-06T05:09:43.403Z,96.82
2023-02-06T05:12:47.028Z,96.95
2023-02-06T05:15:48.857Z,96.96
2023-02-06T05:18:55.598Z,96.79
2023-02-06T05:21:57.152Z,96.89
2023-02-06T05:24:58.726Z,97.00
2023-02-06T05:28:00.328Z,97.40
2023-02-06T05:31:02.961Z,97.47
2023-02-06T05:34:04.588Z,97.14
2023-02-06T05:37:06.149Z,97.18
2023-02-06T05:40:09.027Z,97.07
2023-02-06T05:43:10.802Z,96.79
2023-02-06T05:46:13.119Z,97.23
2023-02-06T05:49:15.244Z,97.49
2023-02-06T05:52:16.938Z,97.81
2023-02-06T05:55:18.665Z,97.60
2023-02-06T05:58:21.135Z,97.66
2023-02-06T06:01:22.735Z,97.43
2023-02-06T06:04:24.948Z,96.94
2023-02-06T06:07:26.549Z,97.07
2023-02-06T06:10:28.341Z,97.03
2023-02-06T06:13:30.408Z,97.30
2023-02-06T06:16:32.504Z,96.98
2023-02-06T06:19:34.104Z,96.87
2023-02-06T06:22:35.644Z,96.62
2023-02-06T06:25:37.595Z,96.85
2023-02-06T06:28:39.401Z,96.95
2023-02-06T06:31:41.111Z,96.88
2023-02-06T06:34:42.922Z,96.59
2023-02-06T06:37:44.799Z,97.09
2023-02-06T06:40:46.360Z,97.27
2023-02-06T06:43:49.553Z,96.89
2023-02-06T06:46:52.519Z,96.52
2023-02-06T06:49:54.175Z,96.21
2023-02-06T06:52:55.773Z,96.18
2023-02-06T06:56:04.003Z,96.34
2023-02-06T06:59:05.718Z,96.22
2023-02-06T07:02:07.642Z,96.28
2023-02-06T07:05:09.293Z,96.15
2023-02-06T07:08:10.858Z,95.67
2023-02-06T07:11:18.516Z,95.88
2023-02-06T07:14:20.353Z,95.79
2023-02-06T07:17:21.913Z,96.43
2023-02-06T07:20:23.723Z,96.36
2023-02-06T07:23:25.580Z,96.50
2023-02-06T07:26:27.181Z,95.53
2023-02-06T07:29:28.813Z,96.24
2023-02-06T07:32:30.393Z,95.86
2023-02-06T07:35:32.110Z,95.94
2023-02-06T07:38:33.619Z,95.84
2023-02-06T07:41:35.226Z,96.02
2023-02-06T07:44:36.792Z,95.87
2023-02-06T07:47:38.428Z,96.33
2023-02-06T07:50:40.096Z,95.92
2023-02-06T07:53:41.631Z,96.09
2023-02-06T07:56:43.779Z,95.67
2023-02-06T07:59:45.368Z,95.96
2023-02-06T08:02:46.945Z,95.39
2023-02-06T08:05:48.563Z,95.30
2023-02-06T08:08:50.710Z,95.64
2023-02-06T08:11:52.298Z,95.62
2023-02-06T08:14:53.883Z,95.60
2023-02-06T08:17:55.547Z,95.55
2023-02-06T08:21:04.312Z,95.38
2023-02-06T08:24:06.528Z,95.51
2023-02-06T08:27:08.126Z,95.19
2023-02-06T08:30:10.348Z,95.16
2023-02-06T08:33:11.857Z,95.56
2023-02-06T08:36:14.415Z,95.42
2023-02-06T08:39:17.380Z,95.12
2023-02-06T08:42:18.968Z,94.55
2023-02-06T08:45:20.642Z,95.46
2023-02-06T08:48:22.273Z,94.71
2023-02-06T08:51:27.731Z,94.93
2023-02-06T08:54:29.346Z,94.47
2023-02-06T08:57:30.846Z,95.31
2023-02-06T09:00:32.430Z,95.32
2023-02-06T09:03:34.623Z,95.28
2023-02-06T09:06:38.783Z,94.52
2023-02-06T09:09:40.436Z,94.84
2023-02-06T09:12:42.012Z,93.92
2023-02-06T09:15:51.344Z,94.07
2023-02-06T09:18:54.358Z,94.46
2023-02-06T09:21:56.228Z,93.94
2023-02-06T09:24:57.864Z,94.16
2023-02-06T09:27:59.382Z,93.94
2023-02-06T09:31:01.220Z,94.23
2023-02-06T09:34:04.209Z,94.25
2023-02-06T09:37:06.296Z,94.46
2023-02-06T09:40:11.632Z,94.81
2023-02-06T09:43:14.004Z,93.51
2023-02-06T09:46:21.273Z,93.21
2023-02-06T09:49:35.908Z,93.36
2023-02-06T09:52:51.568Z,92.65
2023-02-06T09:56:12.660Z,92.44
2023-02-06T09:59:26.136Z,92.28
2023-02-06T10:02:44.508Z,91.52
2023-02-06T10:06:03.224Z,90.74
2023-02-06T10:09:10.959Z,91.06
2023-02-06T10:12:17.980Z,90.16
2023-02-06T10:15:45.403Z,90.28
2023-02-06T10:18:54.288Z,89.30
2023-02-06T10:22:05.620Z,88.93
2023-02-06T10:25:21.087Z,89.63
2023-02-06T10:28:29.438Z,89.24
2023-02-06T10:31:45.541Z,89.54
2023-02-06T10:35:26.338Z,88.74
2023-02-06T10:38:30.900Z,88.90
2023-02-06T10:41:51.641Z,88.47
2023-02-06T10:45:13.207Z,87.80
2023-02-06T10:48:31.574Z,87.12
2023-02-06T10:51:42.597Z,87.02
2023-02-06T10:54:51.616Z,86.82
2023-02-06T10:58:04.653Z,86.92
2023-02-06T11:01:24.766Z,86.53
2023-02-06T11:04:35.824Z,85.69
2023-02-06T11:07:47.140Z,85.61
2023-02-06T11:10:49.908Z,85.28
2023-02-06T11:13:56.968Z,85.43
2023-02-06T11:17:00.185Z,84.51
2023-02-06T11:20:37.355Z,84.32
2023-02-06T11:23:40.486Z,84.93
2023-02-06T11:26:46.787Z,85.39
2023-02-06T11:29:52.052Z,83.90
2023-02-06T11:33:29.376Z,84.51
2023-02-06T11:36:34.704Z,84.25
2023-02-06T11:39:38.840Z,84.10
2023-02-06T11:42:40.398Z,84.20
2023-02-06T11:45:42.556Z,83.49
2023-02-06T11:48:46.867Z,83.33
2023-02-06T11:51:53.953Z,81.83
2023-02-06T11:55:01.642Z,82.63
2023-02-06T11:58:21.419Z,83.08
2023-02-06T12:01:23.452Z,83.30
2023-02-06T12:04:35.541Z,83.61
2023-02-06T12:07:42.558Z,82.54
2023-02-06T12:10:58.088Z,81.35
2023-02-06T12:14:05.632Z,81.00
2023-02-06T12:17:36.155Z,81.53
2023-02-06T12:20:48.204Z,80.91
2023-02-06T12:23:58.105Z,81.75
2023-02-06T12:27:05.691Z,81.34
2023-02-06T12:30:26.684Z,81.53
2023-02-06T12:33:36.105Z,81.68
2023-02-06T12:36:53.169Z,81.44
2023-02-06T12:39:54.749Z,81.81
2023-02-06T12:43:01.568Z,81.90
2023-02-06T12:46:16.420Z,82.24
2023-02-06T12:49:29.287Z,81.50
2023-02-06T12:52:31.192Z,81.06
2023-02-06T12:56:05.687Z,81.93
2023-02-06T12:59:10.072Z,81.02
2023-02-06T13:02:50.776Z,79.63
2023-02-06T13:06:01.691Z,80.33
2023-02-06T13:09:06.732Z,80.64
2023-02-06T13:12:16.238Z,80.42
2023-02-06T13:15:24.903Z,81.10
2023-02-06T13:18:41.827Z,79.52
2023-02-06T13:21:52.185Z,79.73
2023-02-06T13:24:57.460Z,79.62
2023-02-06T13:28:22.627Z,79.60
2023-02-06T13:31:27.450Z,80.29
2023-02-06T13:34:29.240Z,80.56
2023-02-06T13:37:41.264Z,79.54
2023-02-06T13:40:43.274Z,79.90
2023-02-06T13:44:05.194Z,80.44
2023-02-06T13:47:16.644Z,80.44
2023-02-06T13:50:33.267Z,77.91
2023-02-06T13:53:56.637Z,74.17
2023-02-06T13:57:39.419Z,73.56
2023-02-06T14:00:46.672Z,72.66
2023-02-06T14:03:50.557Z,73.87
2023-02-06T14:07:29.144Z,75.85
2023-02-06T14:11:18.358Z,74.76
2023-02-06T14:14:53.687Z,74.65
2023-02-06T14:18:16.500Z,74.69
2023-02-06T14:21:35.408Z,74.66
2023-02-06T14:24:49.915Z,75.61
2023-02-06T14:28:23.183Z,75.25
2023-02-06T14:32:06.753Z,74.67
2023-02-06T14:35:33.016Z,75.45
2023-02-06T14:38:56.064Z,75.25
2023-02-06T14:41:58.112Z,74.82
2023-02-06T14:45:08.639Z,75.38
2023-02-06T14:48:27.051Z,76.44
2023-02-06T14:51:34.103Z,76.33
2023-02-06T14:54:41.660Z,76.08
2023-02-06T14:57:45.803Z,76.10
2023-02-06T15:00:47.596Z,75.82
2023-02-06T15:03:52.702Z,75.34
2023-02-06T15:07:03.459Z,75.50
2023-02-06T15:10:10.392Z,75.60
2023-02-06T15:13:38.576Z,74.23
2023-02-06T15:16:48.837Z,75.04
2023-02-06T15:19:50.360Z,74.55
2023-02-06T15:22:55.349Z,75.19
2023-02-06T15:26:26.214Z,74.39
2023-02-06T15:29:28.256Z,74.92
2023-02-06T15:32:35.338Z,75.14
2023-02-06T15:35:41.271Z,75.98
2023-02-06T15:38:44.125Z,75.96
2023-02-06T15:41:49.506Z,76.58
2023-02-06T15:44:53.343Z,76.57
2023-02-06T15:47:56.290Z,76.84
2023-02-06T15:51:08.806Z,77.44
2023-02-06T15:54:21.207Z,78.41
2023-02-06T15:57:40.776Z,78.23
2023-02-06T16:00:42.510Z,78.22
2023-02-06T16:03:48.841Z,78.92
2023-02-06T16:07:12.199Z,79.92
2023-02-06T16:10:29.067Z,80.15
2023-02-06T16:13:32.125Z,81.49
2023-02-06T16:16:33.852Z,81.66
2023-02-06T16:19:40.608Z,82.70
2023-02-06T16:22:42.368Z,83.16
2023-02-06T16:25:45.933Z,83.66
2023-02-06T16:29:05.134Z,84.12
2023-02-06T16:32:21.288Z,84.99
2023-02-06T16:35:24.288Z,86.17
2023-02-06T16:38:27.114Z,86.33
2023-02-06T16:41:39.402Z,86.20
2023-02-06T16:44:45.226Z,86.17
2023-02-06T16:47:47.364Z,86.42
2023-02-06T16:50:49.751Z,86.59
2023-02-06T16:53:52.490Z,87.16
2023-02-06T16:57:07.293Z,87.71
2023-02-06T17:00:21.764Z,87.88
2023-02-06T17:03:23.516Z,87.82
2023-02-06T17:06:28.967Z,88.09
2023-02-06T17:09:40.363Z,89.11
2023-02-06T17:12:46.099Z,88.62
2023-02-06T17:15:48.079Z,88.89
2023-02-06T17:18:51.271Z,88.72
2023-02-06T17:21:53.719Z,88.61
2023-02-06T17:24:55.792Z,89.35
2023-02-06T17:27:57.883Z,89.38
2023-02-06T17:30:59.969Z,89.44
2023-02-06T17:34:01.556Z,89.29
2023-02-06T17:37:04.134Z,89.38
2023-02-06T17:40:06.964Z,89.00
2023-02-06T17:43:08.688Z,89.98
2023-02-06T17:46:11.791Z,89.80
2023-02-06T17:49:14.724Z,90.15
2023-02-06T17:52:17.208Z,90.35
2023-02-06T17:55:18.965Z,90.41
2023-02-06T17:58:21.068Z,90.93
2023-02-06T18:01:24.127Z,90.78
2023-02-06T18:04:25.963Z,90.72
2023-02-06T18:07:27.717Z,90.42
2023-02-06T18:10:30.237Z,90.82
2023-02-06T18:13:31.784Z,91.42
2023-02-06T18:16:34.332Z,92.08
2023-02-06T18:19:44.100Z,91.49
2023-02-06T18:22:46.617Z,92.06
2023-02-06T18:25:48.228Z,92.37
2023-02-06T18:28:49.930Z,91.74
2023-02-06T18:31:51.784Z,92.29
2023-02-06T18:34:53.854Z,91.63
2023-02-06T18:37:56.538Z,92.28
2023-02-06T18:41:05.733Z,92.70
2023-02-06T18:44:09.537Z,92.59
2023-02-06T18:47:13.382Z,92.08
2023-02-06T18:50:16.419Z,92.89
2023-02-06T18:53:18.531Z,92.95
2023-02-06T18:56:20.141Z,93.09
2023-02-06T18:59:23.047Z,92.45
2023-02-06T19:02:24.758Z,93.21
2023-02-06T19:05:29.009Z,93.16
2023-02-06T19:08:30.603Z,93.20
2023-02-06T19:11:32.489Z,93.04
2023-02-06T19:14:34.776Z,92.83
2023-02-06T19:17:36.731Z,93.21
2023-02-06T19:20:41.675Z,93.01
2023-02-06T19:23:44.828Z,92.91
2023-02-06T19:26:46.969Z,93.61
2023-02-06T19:29:49.059Z,93.43
2023-02-06T19:32:51.972Z,93.04
2023-02-06T19:35:54.397Z,93.30
2023-02-06T19:39:01.145Z,93.81
2023-02-06T19:42:06.594Z,94.40
2023-02-06T19:45:08.564Z,93.89
2023-02-06T19:48:14.338Z,93.55
2023-02-06T19:51:22.231Z,93.80
2023-02-06T19:54:23.771Z,93.48
2023-02-06T19:57:26.278Z,93.60
2023-02-06T20:00:29.310Z,93.50
2023-02-06T20:03:30.972Z,93.67
2023-02-06T20:06:35.064Z,93.56
2023-02-06T20:09:41.731Z,93.40
2023-02-06T20:12:43.318Z,92.85
2023-02-06T20:15:45.022Z,92.78
2023-02-06T20:18:47.119Z,92.64
2023-02-06T20:21:51.686Z,93.22
2023-02-06T20:24:53.706Z,93.48
2023-02-06T20:27:55.992Z,93.45
2023-02-06T20:30:58.129Z,93.34
2023-02-06T20:34:00.017Z,93.75
2023-02-06T20:37:01.634Z,93.97
2023-02-06T20:40:03.680Z,94.56
2023-02-06T20:43:05.386Z,94.75
2023-02-06T20:46:08.216Z,94.03
2023-02-06T20:49:15.868Z,94.53
2023-02-06T20:52:19.163Z,94.70
2023-02-06T20:55:21.143Z,95.02
2023-02-06T20:58:22.821Z,94.93
2023-02-06T21:01:27.042Z,94.91
2023-02-06T21:04:31.747Z,95.02
2023-02-06T21:07:33.484Z,94.87
2023-02-06T21:10:36.080Z,95.30
2023-02-06T21:13:40.398Z,95.33
2023-02-06T21:16:43.670Z,95.25
2023-02-06T21:19:45.251Z,95.20
2023-02-06T21:22:46.838Z,95.61
2023-02-06T21:25:55.858Z,95.36
2023-02-06T21:28:59.731Z,95.27
2023-02-06T21:32:13.304Z,94.66
2023-02-06T21:35:15.730Z,95.38
2023-02-06T21:38:17.569Z,94.84
2023-02-06T21:41:19.235Z,94.99
2023-02-06T21:44:23.858Z,94.94
2023-02-06T21:47:25.469Z,95.02
2023-02-06T21:50:27.017Z,94.92
2023-02-06T21:53:28.667Z,94.57
2023-02-06T21:56:30.540Z,94.47
2023-02-06T21:59:36.375Z,94.51
2023-02-06T22:02:37.938Z,94.13
2023-02-06T22:05:39.758Z,94.32
2023-02-06T22:08:56.487Z,94.08
2023-02-06T22:11:58.343Z,93.84
2023-02-06T22:14:59.980Z,93.60
2023-02-06T22:18:01.653Z,92.98
2023-02-06T22:21:08.666Z,93.02
2023-02-06T22:24:11.673Z,92.79
2023-02-06T22:27:13.218Z,92.86
2023-02-06T22:30:15.009Z,92.61
2023-02-06T22:33:16.603Z,92.17
2023-02-06T22:36:21.490Z,92.42
2023-02-06T22:39:23.751Z,91.94
2023-02-06T22:42:25.400Z,92.31
2023-02-06T22:45:26.971Z,92.26
2023-02-06T22:48:28.747Z,92.04
2023-02-06T22:51:30.408Z,92.06
2023-02-06T22:54:32.087Z,91.79
2023-02-06T22:57:35.280Z,91.83
2023-02-06T23:00:36.852Z,91.64
2023-02-06T23:03:38.477Z,91.46
2023-02-06T23:06:40.765Z,91.88
2023-02-06T23:09:42.455Z,91.38
2023-02-06T23:12:44.030Z,91.65
2023-02-06T23:15:45.670Z,91.30
2023-02-06T23:18:47.933Z,91.21
2023-02-06T23:21:51.201Z,91.40
2023-02-06T23:24:52.920Z,91.06
2023-02-06T23:27:54.807Z,91.22
2023-02-06T23:30:56.473Z,91.00
2023-02-06T23:33:58.318Z,91.40
2023-02-06T23:36:59.894Z,91.39
2023-02-06T23:40:01.434Z,91.15
2023-02-06T23:43:03.231Z,91.28
2023-02-06T23:46:06.271Z,90.97
2023-02-06T23:49:08.857Z,91.06
2023-02-06T23:52:10.455Z,91.42
2023-02-06T23:55:12.360Z,91.23
2023-02-06T23:58:13.960Z,90.77
